createdAt,value
2023-04-25T20:26:43.302Z,101373.63
2023-04-25T20:28:45.166Z,101371.34
2023-04-25T20:30:46.745Z,101366.50
2023-04-25T20:32:48.322Z,101374.31
2023-04-25T20:34:50.328Z,101375.41
2023-04-25T20:36:52.856Z,101366.09
2023-04-25T20:38:54.818Z,101377.94
2023-04-25T20:40:56.724Z,101372.84
2023-04-25T20:42:58.454Z,101382.75
2023-04-25T20:45:00.803Z,101376.84
2023-04-25T20:47:02.351Z,101374.94
2023-04-25T20:49:05.195Z,101382.53
2023-04-25T20:51:07.305Z,101392.81
2023-04-25T20:53:09.129Z,101386.06
2023-04-25T20:55:11.906Z,101375.03
2023-04-25T20:57:17.341Z,101382.00
2023-04-25T20:59:18.883Z,101379.00
2023-04-25T21:01:20.809Z,101391.84
2023-04-25T21:03:22.760Z,101377.50
2023-04-25T21:05:24.665Z,101377.28
2023-04-25T21:07:26.740Z,101381.09
2023-04-25T21:09:28.309Z,101383.63
2023-04-25T21:11:30.275Z,101383.63
2023-04-25T21:13:31.936Z,101394.09
2023-04-25T21:15:33.630Z,101389.25
2023-04-25T21:17:35.461Z,101384.16
2023-04-25T21:19:37.152Z,101385.44
2023-04-25T21:21:39.790Z,101389.19
2023-04-25T21:23:42.649Z,101389.59
2023-04-25T21:25:44.345Z,101388.16
2023-04-25T21:27:49.766Z,101391.78
2023-04-25T21:29:51.319Z,101388.66
2023-04-25T21:31:53.393Z,101399.47
2023-04-25T21:33:55.037Z,101391.47
2023-04-25T21:35:56.720Z,101396.31
2023-04-25T21:37:58.602Z,101399.91
2023-04-25T21:40:00.379Z,101413.84
2023-04-25T21:42:03.330Z,101403.94
2023-04-25T21:44:07.706Z,101401.16
2023-04-25T21:48:14.314Z,101399.97
2023-04-25T21:50:17.698Z,101400.34
2023-04-25T21:52:19.420Z,101405.22
2023-04-25T21:54:21.025Z,101406.94
2023-04-25T21:56:23.075Z,101417.50
2023-04-25T21:58:24.838Z,101412.84
2023-04-25T22:00:28.549Z,101409.47
2023-04-25T22:02:31.188Z,101403.34
2023-04-25T22:04:32.916Z,101409.69
2023-04-25T22:06:34.681Z,101411.50
2023-04-25T22:08:36.444Z,101408.41
2023-04-25T22:10:39.846Z,101412.88
2023-04-25T22:12:41.512Z,101417.13
2023-04-25T22:14:44.707Z,101418.44
2023-04-25T22:16:46.869Z,101418.38
2023-04-25T22:18:49.966Z,101433.66
2023-04-25T22:20:51.894Z,101427.28
2023-04-25T22:22:54.593Z,101425.59
2023-04-25T22:24:56.433Z,101435.09
2023-04-25T22:27:00.498Z,101430.47
2023-04-25T22:29:02.631Z,101431.97
2023-04-25T22:31:04.775Z,101429.47
2023-04-25T22:33:06.544Z,101427.13
2023-04-25T22:35:09.259Z,101432.63
2023-04-25T22:37:11.265Z,101433.84
2023-04-25T22:39:15.147Z,101433.91
2023-04-25T22:41:16.811Z,101426.78
2023-04-25T22:43:18.885Z,101434.34
2023-04-25T22:45:20.493Z,101431.41
2023-04-25T22:47:22.936Z,101430.81
2023-04-25T22:49:24.771Z,101433.38
2023-04-25T22:51:26.306Z,101433.38
2023-04-25T22:53:27.951Z,101427.25
2023-04-25T22:55:29.632Z,101423.28
2023-04-25T22:57:37.501Z,101420.34
2023-04-25T22:59:39.018Z,101427.06
2023-04-25T23:01:40.627Z,101419.03
2023-04-25T23:03:43.797Z,101423.41
2023-04-25T23:05:47.972Z,101424.25
2023-04-25T23:07:49.826Z,101423.38
2023-04-25T23:09:52.077Z,101432.03
2023-04-25T23:11:53.705Z,101431.84
2023-04-25T23:13:55.286Z,101413.97
2023-04-25T23:15:57.137Z,101425.16
2023-04-25T23:17:58.906Z,101422.22
2023-04-25T23:20:00.878Z,101436.38
2023-04-25T23:22:02.474Z,101430.91
2023-04-25T23:24:06.169Z,101431.94
2023-04-25T23:26:08.739Z,101422.88
2023-04-25T23:28:10.279Z,101438.03
2023-04-25T23:30:12.379Z,101422.81
2023-04-25T23:32:17.017Z,101439.31
2023-04-25T23:34:18.666Z,101438.03
2023-04-25T23:36:21.312Z,101430.03
2023-04-25T23:38:23.219Z,101430.91
2023-04-25T23:40:24.980Z,101437.41
2023-04-25T23:42:26.625Z,101437.22
2023-04-25T23:44:28.634Z,101432.38
2023-04-25T23:46:31.062Z,101430.50
2023-04-25T23:48:32.711Z,101429.00
2023-04-25T23:50:34.259Z,101434.66
2023-04-25T23:52:35.997Z,101434.06
2023-04-25T23:54:41.217Z,101443.31
2023-04-25T23:56:42.878Z,101435.97
2023-04-25T23:58:44.572Z,101442.91
